Time;durP1;ratioP1;P1;durP2;ratioP2;P2;SDS_P1;SDS_P2;PMS_P1;PMS_P2;Temp;Humidity;BMP_temperature;BMP_pressure;BME280_temperature;BME280_humidity;BME280_pressure;Samples;Min_cycle;Max_cycle;Signal;HPM_P1;HPM_P2
2022/10/05 00:00:20;;;;;;;4.07;3.45;;;;;21.60;101558.00;;;;4989711;28;20244;-78
2022/10/05 00:02:48;;;;;;;4.05;3.20;;;;;21.60;101542.00;;;;4989179;28;20206;-78
2022/10/05 00:05:27;;;;;;;4.78;3.50;;;;;21.50;101542.00;;;;4990008;28;20594;-77
2022/10/05 00:07:57;;;;;;;4.88;3.50;;;;;21.60;101547.00;;;;4991720;28;20686;-78
2022/10/05 00:10:24;;;;;;;4.45;3.00;;;;;21.60;101551.00;;;;4990917;28;20193;-78
2022/10/05 00:12:53;;;;;;;3.38;3.08;;;;;21.60;101553.00;;;;4975528;28;20236;-78
2022/10/05 00:15:22;;;;;;;4.35;2.90;;;;;21.60;101547.00;;;;4990541;28;20208;-79
2022/10/05 00:17:49;;;;;;;3.88;2.90;;;;;21.60;101551.00;;;;4990587;28;20206;-78
2022/10/05 00:20:20;;;;;;;3.83;3.10;;;;;21.60;101553.00;;;;4988929;28;20241;-78
2022/10/05 00:22:48;;;;;;;6.10;2.88;;;;;21.60;101544.00;;;;4987778;28;20209;-78
2022/10/05 00:25:19;;;;;;;4.53;3.35;;;;;21.60;101544.00;;;;4988540;28;20249;-78
2022/10/05 00:27:53;;;;;;;5.80;3.25;;;;;21.60;101539.00;;;;4989696;28;20668;-78
2022/10/05 00:30:22;;;;;;;5.18;2.65;;;;;21.60;101541.00;;;;4989897;28;20201;-78
2022/10/05 00:32:50;;;;;;;6.22;2.88;;;;;21.60;101537.00;;;;4989348;28;20305;-78
2022/10/05 00:35:19;;;;;;;5.38;3.78;;;;;21.60;101539.00;;;;4990570;28;20217;-78
2022/10/05 00:37:52;;;;;;;4.90;3.00;;;;;21.60;101531.00;;;;4989765;28;20204;-78
2022/10/05 00:40:30;;;;;;;6.53;4.05;;;;;21.50;101535.00;;;;4989968;28;20237;-78
2022/10/05 00:43:15;;;;;;;5.28;3.50;;;;;21.60;101529.00;;;;4989130;28;20289;-78
2022/10/05 00:45:47;;;;;;;5.00;3.30;;;;;21.60;101529.00;;;;4990557;28;20578;-77
2022/10/05 00:48:23;;;;;;;4.10;3.17;;;;;21.50;101526.00;;;;4980769;28;20198;-77
2022/10/05 00:51:07;;;;;;;3.78;2.75;;;;;21.50;101522.00;;;;4986718;28;20707;-78
2022/10/05 00:53:42;;;;;;;4.93;3.38;;;;;21.50;101518.00;;;;4989615;28;20205;-78
2022/10/05 00:56:21;;;;;;;4.88;3.28;;;;;21.50;101519.00;;;;4989022;28;20201;-78
2022/10/05 00:59:04;;;;;;;5.43;3.22;;;;;21.50;101525.00;;;;4984421;28;20205;-78
2022/10/05 01:01:37;;;;;;;4.97;3.25;;;;;21.50;101526.00;;;;4987862;28;20225;-77
2022/10/05 01:04:13;;;;;;;3.75;3.28;;;;;21.50;101519.00;;;;4989804;28;20213;-77
2022/10/05 01:06:49;;;;;;;4.00;3.38;;;;;21.50;101511.00;;;;4989146;28;20201;-77
2022/10/05 01:09:26;;;;;;;7.25;3.78;;;;;21.50;101516.00;;;;4988523;28;20193;-78
2022/10/05 01:12:02;;;;;;;4.45;3.08;;;;;21.50;101513.00;;;;4988312;28;20205;-78
2022/10/05 01:14:40;;;;;;;5.97;3.72;;;;;21.40;101513.00;;;;4982925;28;20208;-78
2022/10/05 01:17:18;;;;;;;9.13;4.60;;;;;21.40;101505.00;;;;4987213;28;20194;-78
2022/10/05 01:20:18;;;;;;;4.70;3.08;;;;;21.40;101507.00;;;;4986091;28;20315;-78
2022/10/05 01:23:06;;;;;;;6.35;4.00;;;;;21.40;101499.00;;;;4987918;28;20205;-77
2022/10/05 01:25:46;;;;;;;4.05;3.40;;;;;21.40;101492.00;;;;4988155;28;20197;-78
2022/10/05 01:28:18;;;;;;;5.40;3.45;;;;;21.40;101493.00;;;;4988728;28;20286;-78
2022/10/05 01:30:54;;;;;;;6.35;3.70;;;;;21.40;101486.00;;;;4986750;28;20198;-78
2022/10/05 01:33:28;;;;;;;4.75;4.25;;;;;21.40;101479.00;;;;4986922;28;20667;-78
2022/10/05 01:36:02;;;;;;;6.43;4.30;;;;;21.40;101470.00;;;;4989491;28;20197;-78
2022/10/05 01:38:42;;;;;;;4.63;3.00;;;;;21.40;101466.00;;;;4987210;28;20198;-78
2022/10/05 01:41:19;;;;;;;5.97;4.00;;;;;21.40;101463.00;;;;4987381;28;20236;-78
2022/10/05 01:43:52;;;;;;;6.60;4.45;;;;;21.40;101460.00;;;;4989011;28;20654;-78
2022/10/05 01:46:28;;;;;;;7.15;3.83;;;;;21.40;101452.00;;;;4985233;28;20994;-78
2022/10/05 01:49:11;;;;;;;6.18;3.78;;;;;21.40;101446.00;;;;4980118;28;20683;-78
2022/10/05 01:51:48;;;;;;;4.18;3.58;;;;;21.40;101449.00;;;;4988484;28;20201;-78
2022/10/05 01:54:28;;;;;;;7.78;4.38;;;;;21.40;101445.00;;;;4985244;28;20525;-78
2022/10/05 01:57:04;;;;;;;5.68;3.78;;;;;21.40;101434.00;;;;4989442;28;20205;-77
2022/10/05 01:59:46;;;;;;;4.32;3.40;;;;;21.30;101434.00;;;;4987721;28;20230;-78
2022/10/05 02:02:17;;;;;;;7.13;4.20;;;;;21.40;101436.00;;;;4987592;28;20229;-78
2022/10/05 02:04:48;;;;;;;6.60;4.10;;;;;21.30;101433.00;;;;4983658;28;20205;-78
2022/10/05 02:07:21;;;;;;;6.25;4.03;;;;;21.30;101430.00;;;;4986204;28;20194;-77
2022/10/05 02:09:54;;;;;;;4.85;3.72;;;;;21.30;101418.00;;;;4983501;28;20737;-78
2022/10/05 02:12:24;;;;;;;5.53;4.10;;;;;21.30;101411.00;;;;4987214;28;20240;-77
2022/10/05 02:14:58;;;;;;;5.00;3.88;;;;;21.30;101410.00;;;;4976770;28;20217;-77
2022/10/05 02:17:32;;;;;;;5.43;3.75;;;;;21.20;101409.00;;;;4987834;28;20204;-78
2022/10/05 02:20:02;;;;;;;5.95;3.67;;;;;21.20;101406.00;;;;4987656;28;20209;-78
2022/10/05 02:22:33;;;;;;;3.92;3.17;;;;;21.20;101417.00;;;;4980996;28;20301;-77
2022/10/05 02:25:06;;;;;;;5.07;3.28;;;;;21.20;101409.00;;;;4987449;28;20216;-78
2022/10/05 02:27:38;;;;;;;5.30;3.80;;;;;21.20;101411.00;;;;4988271;28;20211;-77
2022/10/05 02:30:09;;;;;;;5.05;3.95;;;;;21.20;101422.00;;;;4989553;28;20189;-78
2022/10/05 02:32:40;;;;;;;5.35;3.55;;;;;21.20;101409.00;;;;4984718;28;20213;-78
2022/10/05 02:35:13;;;;;;;6.80;4.28;;;;;21.10;101400.00;;;;4982052;28;20861;-77
2022/10/05 02:37:53;;;;;;;4.15;3.75;;;;;21.20;101393.00;;;;4988535;28;20190;-78
2022/10/05 02:40:28;;;;;;;5.72;3.70;;;;;21.20;101389.00;;;;4980412;28;20197;-78
2022/10/05 02:43:05;;;;;;;4.70;3.40;;;;;21.10;101406.00;;;;4976410;28;20201;-78
2022/10/05 02:45:45;;;;;;;5.43;4.10;;;;;21.10;101402.00;;;;4987562;28;20197;-77
2022/10/05 02:48:20;;;;;;;4.88;3.42;;;;;21.20;101405.00;;;;4987636;28;20204;-78
2022/10/05 02:50:52;;;;;;;5.88;3.65;;;;;21.10;101406.00;;;;4988027;28;20212;-78
2022/10/05 02:53:26;;;;;;;6.28;3.83;;;;;21.10;101392.00;;;;4986879;28;20237;-78
2022/10/05 02:56:01;;;;;;;4.85;3.88;;;;;21.10;101378.00;;;;4979786;28;20653;-78
2022/10/05 02:58:33;;;;;;;6.32;4.22;;;;;21.10;101385.00;;;;4974925;28;20211;-78
2022/10/05 03:01:09;;;;;;;5.43;3.83;;;;;21.10;101384.00;;;;4987657;28;20225;-77
2022/10/05 03:03:41;;;;;;;3.83;3.35;;;;;21.10;101379.00;;;;4984332;28;20197;-77
2022/10/05 03:06:15;;;;;;;5.03;3.83;;;;;21.10;101388.00;;;;4986823;28;20206;-77
2022/10/05 03:08:51;;;;;;;5.75;4.20;;;;;21.10;101383.00;;;;4987158;28;20506;-78
2022/10/05 03:11:26;;;;;;;4.30;3.65;;;;;21.00;101373.00;;;;4985683;28;20686;-77
2022/10/05 03:14:01;;;;;;;5.32;4.07;;;;;21.00;101370.00;;;;4985827;28;20248;-78
2022/10/05 03:16:44;;;;;;;3.78;3.33;;;;;21.00;101372.00;;;;4984164;28;20189;-78
2022/10/05 03:19:25;;;;;;;5.90;4.22;;;;;21.00;101377.00;;;;4995159;28;20203;-78
2022/10/05 03:21:59;;;;;;;5.18;3.95;;;;;21.00;101373.00;;;;4995695;28;20236;-78
2022/10/05 03:24:42;;;;;;;6.70;3.38;;;;;21.00;101373.00;;;;4989723;28;20594;-78
2022/10/05 03:27:19;;;;;;;5.88;3.72;;;;;21.00;101378.00;;;;4978291;28;20197;-78
2022/10/05 03:29:56;;;;;;;5.18;3.80;;;;;21.00;101381.00;;;;4986303;28;20680;-78
2022/10/05 03:32:31;;;;;;;5.93;3.60;;;;;21.00;101384.00;;;;4984038;28;20197;-78
2022/10/05 03:35:06;;;;;;;4.55;3.53;;;;;21.00;101384.00;;;;4989428;28;20208;-78
2022/10/05 03:37:42;;;;;;;4.55;3.42;;;;;21.00;101391.00;;;;4989882;28;20679;-78
2022/10/05 03:40:20;;;;;;;3.97;3.45;;;;;21.00;101385.00;;;;4989080;28;20582;-78
2022/10/05 03:43:01;;;;;;;5.00;3.63;;;;;21.00;101390.00;;;;4987249;28;20248;-78
2022/10/05 03:45:35;;;;;;;3.92;3.22;;;;;21.00;101383.00;;;;4988510;28;20205;-78
2022/10/05 03:48:09;;;;;;;3.80;3.38;;;;;21.00;101376.00;;;;4987930;28;20203;-78
2022/10/05 03:50:45;;;;;;;4.18;2.83;;;;;21.00;101379.00;;;;4988064;28;20664;-77
2022/10/05 03:53:17;;;;;;;5.35;3.08;;;;;21.00;101379.00;;;;4990110;28;20263;-78
2022/10/05 03:55:49;;;;;;;4.35;3.35;;;;;21.00;101392.00;;;;4991727;28;20194;-78
2022/10/05 03:58:23;;;;;;;4.82;3.22;;;;;21.00;101387.00;;;;4991037;28;20205;-78
2022/10/05 04:01:10;;;;;;;5.13;2.97;;;;;20.90;101381.00;;;;4991091;28;20237;-78
2022/10/05 04:03:44;;;;;;;3.88;3.08;;;;;21.00;101381.00;;;;4985868;28;20202;-78
2022/10/05 04:06:17;;;;;;;3.97;3.22;;;;;21.00;101375.00;;;;4987332;28;20581;-78
2022/10/05 04:08:51;;;;;;;3.83;3.13;;;;;21.00;101367.00;;;;4991884;28;20205;-78
2022/10/05 04:11:22;;;;;;;2.72;2.53;;;;;21.00;101368.00;;;;4990072;28;20686;-78
2022/10/05 04:13:52;;;;;;;4.25;3.10;;;;;21.00;101359.00;;;;4989163;28;20222;-78
2022/10/05 04:16:26;;;;;;;3.33;3.03;;;;;21.00;101355.00;;;;4990195;28;20210;-78
2022/10/05 04:19:01;;;;;;;5.78;3.22;;;;;21.00;101351.00;;;;4991475;28;20193;-78
2022/10/05 04:21:32;;;;;;;5.43;3.55;;;;;21.00;101361.00;;;;4989344;28;20610;-78
2022/10/05 04:24:04;;;;;;;5.60;3.45;;;;;21.00;101351.00;;;;4990885;28;20206;-78
2022/10/05 04:26:40;;;;;;;3.88;3.40;;;;;21.00;101349.00;;;;4991619;28;20194;-78
2022/10/05 04:29:15;;;;;;;4.70;3.65;;;;;21.00;101357.00;;;;4991308;28;20209;-78
2022/10/05 04:31:55;;;;;;;3.50;3.20;;;;;20.90;101351.00;;;;4989995;28;20630;-78
2022/10/05 04:34:40;;;;;;;4.13;3.03;;;;;20.90;101339.00;;;;4990214;28;20205;-78
2022/10/05 04:37:13;;;;;;;2.95;2.50;;;;;21.00;101345.00;;;;4979457;28;20201;-78
2022/10/05 04:39:50;;;;;;;4.63;3.10;;;;;20.90;101336.00;;;;4983032;28;20575;-78
2022/10/05 04:42:26;;;;;;;4.50;2.83;;;;;20.90;101341.00;;;;4981994;28;20217;-78
2022/10/05 04:45:11;;;;;;;3.33;2.53;;;;;20.90;101335.00;;;;4990019;28;20198;-78
2022/10/05 04:48:03;;;;;;;3.40;2.60;;;;;20.90;101328.00;;;;4987439;28;20198;-78
2022/10/05 04:50:48;;;;;;;5.93;2.90;;;;;20.90;101334.00;;;;4987193;28;20567;-78
2022/10/05 04:53:28;;;;;;;2.85;2.47;;;;;20.90;101328.00;;;;4987382;28;20201;-78
2022/10/05 04:56:02;;;;;;;2.42;1.95;;;;;21.00;101326.00;;;;4987388;28;20220;-78
2022/10/05 04:58:43;;;;;;;2.55;2.35;;;;;20.90;101333.00;;;;4989951;28;20275;-78
2022/10/05 05:01:24;;;;;;;3.13;2.78;;;;;20.90;101332.00;;;;4989857;28;20225;-78
2022/10/05 05:04:10;;;;;;;6.45;2.05;;;;;20.90;101328.00;;;;4990948;28;20201;-78
2022/10/05 05:06:46;;;;;;;3.22;2.10;;;;;21.00;101327.00;;;;4990397;28;20706;-78
2022/10/05 05:09:26;;;;;;;3.22;2.15;;;;;20.90;101327.00;;;;4989186;28;20400;-78
2022/10/05 05:12:15;;;;;;;1.83;1.42;;;;;20.90;101323.00;;;;4990225;28;20221;-78
2022/10/05 05:15:01;;;;;;;2.78;1.88;;;;;20.90;101322.00;;;;4990691;28;20231;-78
2022/10/05 05:17:45;;;;;;;2.15;1.73;;;;;21.00;101319.00;;;;4977053;28;20194;-78
2022/10/05 05:20:22;;;;;;;2.53;2.13;;;;;21.00;101317.00;;;;4988829;28;20201;-78
2022/10/05 05:22:58;;;;;;;4.05;1.80;;;;;21.00;101316.00;;;;4991182;28;20220;-78
2022/10/05 05:25:35;;;;;;;3.75;2.10;;;;;21.00;101306.00;;;;4990594;28;20194;-78
2022/10/05 05:28:14;;;;;;;2.33;1.80;;;;;21.00;101310.00;;;;4980075;28;20204;-78
2022/10/05 05:30:46;;;;;;;2.95;2.03;;;;;21.00;101305.00;;;;4978650;28;20193;-79
2022/10/05 05:33:20;;;;;;;2.28;1.90;;;;;20.90;101306.00;;;;4987299;28;20291;-78
2022/10/05 05:36:22;;;;;;;3.00;2.17;;;;;20.90;101312.00;;;;4988008;28;20204;-78
2022/10/05 05:39:01;;;;;;;3.38;2.50;;;;;20.90;101314.00;;;;4985839;28;20205;-78
2022/10/05 05:41:36;;;;;;;3.03;1.88;;;;;20.90;101313.00;;;;4988415;28;20607;-78
2022/10/05 05:44:14;;;;;;;3.40;2.20;;;;;20.90;101311.00;;;;4985452;28;20205;-77
2022/10/05 05:46:49;;;;;;;3.17;2.33;;;;;20.90;101308.00;;;;4988612;28;20268;-78
2022/10/05 05:49:22;;;;;;;5.00;2.78;;;;;20.90;101306.00;;;;4989193;28;20197;-78
2022/10/05 05:51:55;;;;;;;4.00;3.17;;;;;20.90;101308.00;;;;4989896;28;20690;-79
2022/10/05 05:54:30;;;;;;;3.70;2.67;;;;;20.90;101303.00;;;;4989904;28;20212;-79
2022/10/05 05:57:07;;;;;;;6.32;4.40;;;;;20.90;101305.00;;;;4986088;28;21297;-78
2022/10/05 05:59:47;;;;;;;4.28;3.03;;;;;21.00;101306.00;;;;4984602;28;20232;-78
2022/10/05 06:02:18;;;;;;;4.03;2.90;;;;;21.00;101304.00;;;;4988024;28;20225;-77
2022/10/05 06:04:49;;;;;;;3.35;2.75;;;;;21.00;101302.00;;;;4986269;28;20202;-77
2022/10/05 06:07:21;;;;;;;3.78;2.95;;;;;21.00;101305.00;;;;4990414;28;20205;-78
2022/10/05 06:09:56;;;;;;;5.20;3.75;;;;;20.90;101301.00;;;;4973023;28;20661;-77
2022/10/05 06:12:28;;;;;;;3.80;2.83;;;;;20.90;101306.00;;;;4987495;28;20205;-77
2022/10/05 06:14:59;;;;;;;3.28;2.95;;;;;21.00;101298.00;;;;4984048;28;20197;-77
2022/10/05 06:17:33;;;;;;;3.30;2.72;;;;;21.00;101306.00;;;;4970005;28;20540;-76
2022/10/05 06:20:02;;;;;;;4.03;3.08;;;;;21.00;101308.00;;;;4977315;28;20220;-77
2022/10/05 06:22:33;;;;;;;3.22;2.60;;;;;21.00;101308.00;;;;4989785;28;20710;-77
2022/10/05 06:25:09;;;;;;;3.63;3.05;;;;;20.90;101308.00;;;;4989529;28;20212;-76
2022/10/05 06:27:37;;;;;;;3.80;3.35;;;;;21.00;101301.00;;;;4988634;28;20204;-77
2022/10/05 06:30:07;;;;;;;3.45;3.15;;;;;20.90;101305.00;;;;4988918;28;20684;-77
2022/10/05 06:32:47;;;;;;;2.85;2.20;;;;;20.90;101315.00;;;;4988571;28;20561;-77
2022/10/05 06:35:22;;;;;;;3.10;2.65;;;;;20.90;101311.00;;;;4986309;28;20676;-78
2022/10/05 06:38:07;;;;;;;3.30;2.67;;;;;20.90;101311.00;;;;4986408;28;20664;-78
2022/10/05 06:40:53;;;;;;;4.57;2.05;;;;;20.90;101316.00;;;;4987645;28;20189;-78
2022/10/05 06:43:34;;;;;;;3.67;2.10;;;;;20.90;101317.00;;;;4985393;28;20225;-78
2022/10/05 06:46:10;;;;;;;4.82;2.20;;;;;20.90;101311.00;;;;4986478;28;20197;-78
2022/10/05 06:48:53;;;;;;;2.88;2.22;;;;;20.90;101317.00;;;;4994813;28;20196;-78
2022/10/05 06:51:27;;;;;;;2.75;2.38;;;;;20.90;101315.00;;;;4987172;28;20591;-77
2022/10/05 06:54:04;;;;;;;3.15;2.33;;;;;20.90;101306.00;;;;4979564;28;20209;-78
2022/10/05 06:56:40;;;;;;;2.58;2.30;;;;;21.00;101309.00;;;;4978240;28;20193;-78
2022/10/05 06:59:14;;;;;;;3.13;2.25;;;;;21.00;101314.00;;;;4987885;28;20443;-78
2022/10/05 07:01:53;;;;;;;3.88;2.38;;;;;20.90;101318.00;;;;4984010;28;20197;-78
2022/10/05 07:04:45;;;;;;;3.20;2.70;;;;;20.90;101317.00;;;;4984678;28;20198;-78
2022/10/05 07:07:22;;;;;;;4.25;2.30;;;;;21.00;101320.00;;;;4987783;28;20281;-78
2022/10/05 07:10:01;;;;;;;3.28;2.72;;;;;20.90;101310.00;;;;4985609;28;20194;-78
2022/10/05 07:12:49;;;;;;;3.15;2.28;;;;;20.90;101315.00;;;;4978351;28;20225;-78
2022/10/05 07:15:40;;;;;;;3.45;2.20;;;;;20.90;101311.00;;;;4988391;28;20212;-78
2022/10/05 07:18:30;;;;;;;4.43;2.72;;;;;21.00;101312.00;;;;4979765;28;20201;-77
2022/10/05 07:21:04;;;;;;;2.63;2.10;;;;;21.00;101311.00;;;;4982717;28;20225;-77
2022/10/05 07:23:47;;;;;;;3.33;2.22;;;;;21.00;101323.00;;;;4970824;28;20237;-77
2022/10/05 07:26:20;;;;;;;2.95;2.28;;;;;21.00;101316.00;;;;4984540;28;20198;-78
2022/10/05 07:28:53;;;;;;;3.35;2.42;;;;;21.10;101315.00;;;;4985625;28;20209;-77
2022/10/05 07:31:29;;;;;;;3.45;2.50;;;;;21.00;101314.00;;;;4987828;28;20202;-77
2022/10/05 07:34:04;;;;;;;5.82;2.22;;;;;21.10;101314.00;;;;4992413;28;20212;-77
2022/10/05 07:39:32;;;;;;;2.95;2.00;;;;;21.10;101321.00;;;;4979351;28;20209;-78
2022/10/05 07:42:09;;;;;;;2.45;2.05;;;;;21.10;101324.00;;;;4976777;28;20197;-78
2022/10/05 07:44:43;;;;;;;2.85;2.17;;;;;21.10;101320.00;;;;4982749;28;20276;-80
2022/10/05 07:47:17;;;;;;;3.13;2.03;;;;;21.10;101321.00;;;;4985618;28;20201;-80
2022/10/05 07:49:52;;;;;;;2.78;2.33;;;;;21.10;101325.00;;;;4987745;28;20209;-80
2022/10/05 07:52:27;;;;;;;2.63;2.05;;;;;21.10;101319.00;;;;4987320;28;20240;-80
2022/10/05 07:55:03;;;;;;;2.50;1.98;;;;;21.10;101310.00;;;;4987569;28;20205;-81
2022/10/05 07:57:43;;;;;;;2.60;2.25;;;;;21.10;101319.00;;;;4984654;28;20201;-80
2022/10/05 08:00:17;;;;;;;2.75;1.92;;;;;21.10;101316.00;;;;4981813;28;20316;-78
2022/10/05 08:02:50;;;;;;;3.85;2.17;;;;;21.10;101315.00;;;;4983996;28;20213;-80
2022/10/05 08:05:24;;;;;;;1.90;1.55;;;;;21.10;101311.00;;;;4988685;28;20209;-80
2022/10/05 08:07:59;;;;;;;2.45;1.75;;;;;21.10;101306.00;;;;4990931;28;20206;-80
2022/10/05 08:10:32;;;;;;;2.15;1.85;;;;;21.10;101308.00;;;;4988501;28;20204;-79
2022/10/05 08:13:09;;;;;;;2.58;2.00;;;;;21.10;101315.00;;;;4984370;28;20217;-80
2022/10/05 08:15:42;;;;;;;5.63;2.65;;;;;21.10;101312.00;;;;4981440;28;20208;-80
2022/10/05 08:18:19;;;;;;;2.75;1.98;;;;;21.10;101309.00;;;;4989428;28;20613;-81
2022/10/05 08:20:49;;;;;;;3.47;2.20;;;;;21.20;101311.00;;;;4988844;28;20205;-79
2022/10/05 08:23:25;;;;;;;4.13;2.13;;;;;21.10;101307.00;;;;4989346;28;20240;-80
2022/10/05 08:26:02;;;;;;;3.78;2.08;;;;;21.10;101313.00;;;;4986529;28;20754;-80
2022/10/05 08:28:35;;;;;;;3.05;2.00;;;;;21.10;101294.00;;;;4989421;28;20201;-79
2022/10/05 08:31:16;;;;;;;2.38;2.13;;;;;21.10;101303.00;;;;4987751;28;20202;-78
2022/10/05 08:33:55;;;;;;;3.00;2.33;;;;;21.10;101301.00;;;;4988857;28;20660;-78
2022/10/05 08:36:31;;;;;;;4.07;2.22;;;;;21.20;101293.00;;;;4980571;28;20213;-78
2022/10/05 08:39:02;;;;;;;2.47;2.10;;;;;21.20;101292.00;;;;4983939;28;20628;-77
2022/10/05 08:41:55;;;;;;;4.25;1.98;;;;;21.10;101286.00;;;;4989406;28;20201;-77
2022/10/05 08:44:55;;;;;;;1.65;1.55;;;;;21.10;101288.00;;;;4987658;28;20244;-77
2022/10/05 08:47:38;;;;;;;2.22;2.03;;;;;21.10;101294.00;;;;4980046;28;20671;-77
2022/10/05 08:50:29;;;;;;;2.75;2.00;;;;;21.10;101276.00;;;;4986295;28;20193;-78
2022/10/05 08:53:33;;;;;;;2.55;1.80;;;;;21.10;101281.00;;;;4988448;28;20206;-77
2022/10/05 08:56:25;;;;;;;3.72;2.30;;;;;21.10;101290.00;;;;4988887;28;20202;-78
2022/10/05 08:59:18;;;;;;;4.28;1.75;;;;;21.10;101282.00;;;;4990322;28;20205;-77
2022/10/05 09:02:08;;;;;;;2.85;1.67;;;;;21.10;101282.00;;;;4980365;28;20205;-78
2022/10/05 09:04:52;;;;;;;2.10;1.75;;;;;21.10;101285.00;;;;4987395;28;20208;-77
2022/10/05 09:07:42;;;;;;;2.00;1.80;;;;;21.20;101283.00;;;;4983033;28;20205;-77
2022/10/05 09:10:41;;;;;;;1.73;1.60;;;;;21.20;101287.00;;;;4987371;28;20209;-77
2022/10/05 09:13:33;;;;;;;3.38;1.58;;;;;21.20;101281.00;;;;4979602;28;20214;-77
2022/10/05 09:16:28;;;;;;;3.97;2.20;;;;;21.30;101288.00;;;;4984409;28;20208;-77
2022/10/05 09:19:28;;;;;;;2.00;1.77;;;;;21.20;101284.00;;;;4988627;28;20212;-77
2022/10/05 09:22:05;;;;;;;1.58;1.42;;;;;21.30;101278.00;;;;4986168;28;20209;-77
2022/10/05 09:25:05;;;;;;;1.90;1.80;;;;;21.30;101277.00;;;;4987076;28;20228;-78
2022/10/05 09:27:36;;;;;;;1.80;1.67;;;;;21.40;101273.00;;;;4978628;28;20193;-77
2022/10/05 09:30:37;;;;;;;1.98;1.75;;;;;21.40;101266.00;;;;4987098;28;20674;-80
2022/10/05 09:33:24;;;;;;;2.00;1.80;;;;;21.40;101264.00;;;;4980652;28;20570;-80
2022/10/05 09:36:21;;;;;;;1.40;1.25;;;;;21.40;101259.00;;;;4989932;28;20210;-80
2022/10/05 09:39:19;;;;;;;1.80;1.20;;;;;21.50;101252.00;;;;4990629;28;20634;-80
2022/10/05 09:42:06;;;;;;;1.17;1.02;;;;;21.60;101253.00;;;;4986196;28;20209;-78
2022/10/05 09:45:01;;;;;;;2.30;1.27;;;;;21.60;101253.00;;;;4974265;28;20254;-79
2022/10/05 09:47:54;;;;;;;1.38;1.00;;;;;21.60;101250.00;;;;4975786;28;20548;-79
2022/10/05 09:50:51;;;;;;;2.92;1.58;;;;;21.60;101248.00;;;;4988995;28;20562;-78
2022/10/05 09:53:55;;;;;;;2.45;1.55;;;;;21.70;101240.00;;;;4982162;28;20209;-79
2022/10/05 09:56:47;;;;;;;1.55;1.10;;;;;21.80;101243.00;;;;4989534;28;20197;-79
2022/10/05 10:00:00;;;;;;;1.30;1.13;;;;;21.80;101243.00;;;;4984004;28;20222;-78
2022/10/05 10:03:05;;;;;;;1.30;1.00;;;;;21.80;101229.00;;;;4946523;28;20202;-78
2022/10/05 10:06:00;;;;;;;4.93;1.50;;;;;21.90;101234.00;;;;4942062;29;20206;-79
2022/10/05 10:08:41;;;;;;;1.80;1.70;;;;;22.00;101233.00;;;;4986170;28;20197;-79
2022/10/05 10:11:19;;;;;;;3.05;1.40;;;;;22.10;101230.00;;;;4983147;28;20668;-79
2022/10/05 10:14:02;;;;;;;1.85;1.70;;;;;22.10;101221.00;;;;4986396;28;20217;-77
2022/10/05 10:17:00;;;;;;;3.00;2.08;;;;;22.10;101230.00;;;;4988881;28;20197;-79
2022/10/05 10:20:10;;;;;;;4.70;1.80;;;;;22.10;101218.00;;;;4976482;28;20204;-80
2022/10/05 10:23:01;;;;;;;2.03;1.75;;;;;22.10;101218.00;;;;4987048;28;20202;-79
2022/10/05 10:26:00;;;;;;;3.28;1.83;;;;;22.20;101213.00;;;;4978707;28;20201;-80
2022/10/05 10:28:54;;;;;;;3.53;1.35;;;;;22.20;101228.00;;;;4978267;28;20599;-79
2022/10/05 10:31:53;;;;;;;3.28;1.98;;;;;22.20;101215.00;;;;4984664;28;20205;-80
2022/10/05 10:34:42;;;;;;;2.95;2.28;;;;;22.20;101219.00;;;;4972633;28;20209;-80
2022/10/05 10:37:33;;;;;;;2.25;1.75;;;;;22.20;101216.00;;;;4969833;28;20241;-79
2022/10/05 10:40:25;;;;;;;2.03;1.45;;;;;22.30;101215.00;;;;4970732;28;20291;-79
2022/10/05 10:43:20;;;;;;;3.05;1.70;;;;;22.30;101211.00;;;;4977178;28;20202;-80
2022/10/05 10:45:53;;;;;;;2.28;1.70;;;;;22.40;101203.00;;;;4970408;28;20649;-79
2022/10/05 10:48:56;;;;;;;2.58;2.20;;;;;22.30;101215.00;;;;4986934;28;20205;-80
2022/10/05 10:52:04;;;;;;;1.95;1.73;;;;;22.30;101198.00;;;;4962453;28;20205;-79
2022/10/05 10:55:15;;;;;;;3.53;2.08;;;;;22.30;101201.00;;;;4982582;28;20200;-82
2022/10/05 10:57:57;;;;;;;4.97;4.32;;;;;22.40;101202.00;;;;4980358;28;20626;-81
2022/10/05 11:00:38;;;;;;;3.40;3.00;;;;;22.40;101205.00;;;;4968700;28;20233;-80
2022/10/05 11:03:29;;;;;;;2.78;2.20;;;;;22.40;101203.00;;;;4981005;28;20236;-81
2022/10/05 11:06:28;;;;;;;2.33;1.77;;;;;22.40;101202.00;;;;4989208;28;20595;-81
2022/10/05 11:09:45;;;;;;;6.00;1.98;;;;;22.40;101193.00;;;;4985810;28;20209;-81
2022/10/05 11:12:59;;;;;;;2.67;1.73;;;;;22.40;101202.00;;;;4985517;28;20198;-80
2022/10/05 11:15:55;;;;;;;3.00;1.38;;;;;22.40;101197.00;;;;4969196;28;20879;-80
2022/10/05 11:18:34;;;;;;;2.80;2.00;;;;;22.40;101193.00;;;;4986250;28;20278;-80
2022/10/05 11:21:30;;;;;;;2.55;1.98;;;;;22.50;101192.00;;;;4986777;28;20201;-80
2022/10/05 11:24:37;;;;;;;3.78;1.75;;;;;22.40;101185.00;;;;4987091;28;20287;-80
2022/10/05 11:27:27;;;;;;;5.65;1.73;;;;;22.50;101194.00;;;;4986069;28;20256;-80
2022/10/05 11:30:11;;;;;;;2.22;1.50;;;;;22.50;101184.00;;;;4969102;28;20194;-80
2022/10/05 11:33:10;;;;;;;2.20;1.42;;;;;22.50;101182.00;;;;4986488;28;20678;-80
2022/10/05 11:35:58;;;;;;;3.30;1.60;;;;;22.60;101188.00;;;;4988617;28;20723;-80
2022/10/05 11:38:54;;;;;;;2.08;1.45;;;;;22.60;101184.00;;;;4987880;28;20208;-79
2022/10/05 11:41:43;;;;;;;2.78;1.33;;;;;22.60;101173.00;;;;4991060;28;20197;-79
2022/10/05 11:45:06;;;;;;;2.22;1.40;;;;;22.60;101168.00;;;;4977599;28;20610;-78
2022/10/05 11:47:40;;;;;;;2.47;1.83;;;;;22.80;101174.00;;;;4989702;28;20668;-79
2022/10/05 11:50:20;;;;;;;2.65;1.50;;;;;22.80;101171.00;;;;4990344;28;20205;-79
2022/10/05 11:52:53;;;;;;;3.25;1.73;;;;;22.90;101167.00;;;;4984502;28;20186;-80
2022/10/05 11:55:27;;;;;;;1.77;1.35;;;;;22.90;101158.00;;;;4988917;28;20210;-79
2022/10/05 11:57:59;;;;;;;2.13;1.67;;;;;23.00;101162.00;;;;4988484;28;20205;-80
2022/10/05 12:00:34;;;;;;;2.65;1.58;;;;;23.00;101162.00;;;;4987172;28;20225;-79
2022/10/05 12:03:36;;;;;;;2.67;1.15;;;;;22.90;101164.00;;;;4990796;28;20209;-79
2022/10/05 12:06:21;;;;;;;2.13;1.30;;;;;23.10;101160.00;;;;4988976;28;20580;-79
2022/10/05 12:09:02;;;;;;;5.50;1.67;;;;;23.10;101158.00;;;;4989015;28;20201;-79
2022/10/05 12:11:46;;;;;;;2.17;1.55;;;;;23.10;101154.00;;;;4989083;28;20198;-79
2022/10/05 12:14:23;;;;;;;1.63;1.50;;;;;23.20;101160.00;;;;4990949;28;20470;-79
2022/10/05 12:16:58;;;;;;;1.55;1.45;;;;;23.20;101147.00;;;;4989915;28;20240;-79
2022/10/05 12:19:35;;;;;;;2.60;1.50;;;;;23.20;101146.00;;;;4982940;28;20189;-79
2022/10/05 12:22:09;;;;;;;1.80;1.50;;;;;23.20;101135.00;;;;4989588;28;20280;-79
2022/10/05 12:25:12;;;;;;;1.70;1.40;;;;;23.20;101145.00;;;;4988001;28;20221;-78
2022/10/05 12:27:42;;;;;;;1.30;1.17;;;;;23.30;101143.00;;;;4968568;28;20205;-79
2022/10/05 12:30:15;;;;;;;2.83;1.35;;;;;23.30;101128.00;;;;4987892;28;20300;-78
2022/10/05 12:32:55;;;;;;;1.75;1.63;;;;;23.40;101132.00;;;;4989404;28;20201;-78
2022/10/05 12:35:30;;;;;;;1.90;1.60;;;;;23.50;101145.00;;;;4987472;28;20673;-78
2022/10/05 12:38:06;;;;;;;2.28;1.95;;;;;23.50;101124.00;;;;4988671;28;20213;-78
2022/10/05 12:40:40;;;;;;;2.65;1.73;;;;;23.50;101123.00;;;;4989257;28;20204;-79
2022/10/05 12:43:15;;;;;;;4.03;1.58;;;;;23.60;101117.00;;;;4986144;28;20782;-78
2022/10/05 12:46:07;;;;;;;1.90;1.60;;;;;23.50;101125.00;;;;4979458;28;20200;-78
2022/10/05 12:48:55;;;;;;;2.30;1.67;;;;;23.60;101125.00;;;;4989291;28;20204;-78
2022/10/05 12:51:33;;;;;;;1.70;1.30;;;;;23.60;101127.00;;;;4986089;28;20210;-78
2022/10/05 12:54:08;;;;;;;1.83;1.42;;;;;23.70;101129.00;;;;4989573;28;20201;-78
2022/10/05 12:56:43;;;;;;;3.90;1.45;;;;;23.80;101134.00;;;;4989112;28;20574;-78
2022/10/05 12:59:20;;;;;;;3.08;1.83;;;;;23.80;101127.00;;;;4988760;28;20205;-78
2022/10/05 13:01:56;;;;;;;1.58;1.48;;;;;23.80;101134.00;;;;4990301;28;20568;-78
2022/10/05 13:04:39;;;;;;;1.95;1.42;;;;;23.80;101134.00;;;;4989570;28;20244;-78
2022/10/05 13:07:22;;;;;;;1.55;1.40;;;;;23.80;101130.00;;;;4986695;28;20225;-79
2022/10/05 13:10:00;;;;;;;1.70;1.27;;;;;23.80;101130.00;;;;4989588;28;20569;-78
2022/10/05 13:12:39;;;;;;;2.35;1.35;;;;;23.80;101122.00;;;;4989243;28;20216;-78
2022/10/05 13:15:15;;;;;;;6.13;1.42;;;;;23.80;101126.00;;;;4986645;28;20320;-77